createdAt,value
2022-08-16T00:00:03.827Z,0
2022-08-16T00:05:02.507Z,0
2022-08-16T00:10:02.498Z,0
2022-08-16T00:15:02.564Z,0
2022-08-16T00:20:02.628Z,0
2022-08-16T00:25:02.472Z,0
2022-08-16T00:30:09.073Z,0
2022-08-16T00:35:02.659Z,0
2022-08-16T00:40:02.727Z,0
2022-08-16T00:45:06.595Z,0
2022-08-16T00:50:08.286Z,0
2022-08-16T00:55:02.677Z,0
2022-08-16T01:00:02.499Z,0
2022-08-16T01:05:04.688Z,0
2022-08-16T01:10:02.737Z,0
2022-08-16T01:15:02.524Z,0
2022-08-16T01:20:23.556Z,0
2022-08-16T01:25:02.593Z,0
2022-08-16T01:30:02.832Z,0
2022-08-16T01:35:02.500Z,0
2022-08-16T01:40:02.671Z,0
2022-08-16T01:45:02.775Z,0
2022-08-16T01:50:41.359Z,0
2022-08-16T01:55:02.535Z,0
2022-08-16T02:00:00.814Z,0
2022-08-16T02:05:00.945Z,0
2022-08-16T02:10:01.942Z,0
2022-08-16T02:15:01.023Z,0
2022-08-16T02:20:11.481Z,0
2022-08-16T02:25:00.846Z,0
2022-08-16T02:30:04.708Z,0
2022-08-16T02:35:01.003Z,0
2022-08-16T02:40:00.875Z,0
2022-08-16T02:45:00.864Z,0
2022-08-16T02:50:52.969Z,0
2022-08-16T02:55:00.837Z,0
2022-08-16T03:00:01.290Z,0
2022-08-16T03:05:01.677Z,0
2022-08-16T03:10:01.114Z,0
2022-08-16T03:15:00.848Z,0
2022-08-16T03:20:02.641Z,0
2022-08-16T03:25:01.515Z,0
2022-08-16T03:30:00.873Z,0
2022-08-16T03:35:00.912Z,0
2022-08-16T03:40:02.790Z,0
2022-08-16T03:45:03.012Z,0
2022-08-16T03:50:25.493Z,0
2022-08-16T03:55:01.022Z,0
2022-08-16T04:00:00.931Z,0
2022-08-16T04:05:01.979Z,0
2022-08-16T04:10:00.996Z,0
2022-08-16T04:15:00.939Z,0
2022-08-16T04:20:06.571Z,0
2022-08-16T04:25:00.967Z,0
2022-08-16T04:30:02.660Z,0
2022-08-16T04:35:04.846Z,0.07844444444444446
2022-08-16T04:40:01.063Z,0.36744973544973547
2022-08-16T04:45:01.908Z,0.4815978835978836
2022-08-16T04:50:01.340Z,0.8254391534391534
2022-08-16T04:55:00.950Z,1.1942010582010583
2022-08-16T05:00:25.388Z,1.6183386243386242
2022-08-16T05:05:00.929Z,1.9063386243386242
2022-08-16T05:10:00.955Z,2.1334920634920636
2022-08-16T05:15:02.322Z,2.8693015873015875
2022-08-16T05:20:35.402Z,3.7953333333333332
2022-08-16T05:25:08.935Z,4.26058201058201
2022-08-16T05:30:03.866Z,4.301544973544973
2022-08-16T05:35:01.125Z,5.063671957671958
2022-08-16T05:40:01.057Z,5.4323703703703705
2022-08-16T05:45:01.344Z,5.321756613756614
2022-08-16T05:50:06.298Z,5.665989417989419
2022-08-16T05:55:01.790Z,6.418804232804233
2022-08-16T06:00:02.617Z,7.673936507936507
2022-08-16T06:05:01.048Z,9.373619047619048
2022-08-16T06:10:01.268Z,10.774084656084657
2022-08-16T06:15:00.977Z,13.274592592592594
2022-08-16T06:20:00.979Z,19.462740740740742
2022-08-16T06:25:01.114Z,21.31404232804233
2022-08-16T06:30:01.119Z,25.12971428571429
2022-08-16T06:35:02.509Z,26.259809523809523
2022-08-16T06:40:01.069Z,29.793343915343918
2022-08-16T06:45:01.177Z,24.52815873015873
2022-08-16T06:50:06.394Z,25.071978835978836
2022-08-16T06:55:01.094Z,24.25973544973545
2022-08-16T07:00:02.103Z,30.894825396825397
2022-08-16T07:05:01.117Z,25.812550264550264
2022-08-16T07:10:01.063Z,28.239650793650796
2022-08-16T07:15:01.059Z,30.39152380952381
2022-08-16T07:20:30.823Z,31.519058201058197
2022-08-16T07:25:01.174Z,34.811460317460316
2022-08-16T07:30:01.480Z,37.00237037037037
2022-08-16T07:35:01.233Z,39.41286772486773
2022-08-16T07:40:01.132Z,34.26366137566138
2022-08-16T07:45:01.186Z,26.91541798941799
2022-08-16T07:50:05.078Z,42.569343915343914
2022-08-16T07:55:01.533Z,43.55015873015873
2022-08-16T08:00:01.746Z,44.45912169312169
2022-08-16T08:05:03.399Z,43.57721693121694
2022-08-16T08:10:01.257Z,46.807873015873014
2022-08-16T08:15:01.374Z,49.04875132275132
2022-08-16T08:20:06.978Z,50.34634920634922
2022-08-16T08:25:03.691Z,51.54292063492064
2022-08-16T08:30:09.338Z,53.267407407407404
2022-08-16T08:35:03.523Z,55.108772486772494
2022-08-16T08:40:01.278Z,56.91531216931217
2022-08-16T08:45:01.197Z,58.77918518518518
2022-08-16T08:50:11.117Z,60.793756613756614
2022-08-16T08:55:01.185Z,60.306507936507934
2022-08-16T09:00:01.155Z,47.52753439153439
2022-08-16T09:05:01.313Z,60.28375661375662
2022-08-16T09:10:06.511Z,65.97379894179895
2022-08-16T09:15:01.189Z,64.55693121693122
2022-08-16T09:20:04.750Z,64.2671111111111
2022-08-16T09:25:11.616Z,65.22614814814814
2022-08-16T09:30:02.552Z,66.46223280423281
2022-08-16T09:35:01.163Z,66.73516402116402
2022-08-16T09:40:01.390Z,66.72277248677248
2022-08-16T09:45:09.852Z,67.4094074074074
2022-08-16T09:50:11.705Z,68.23937566137566
2022-08-16T09:55:01.342Z,69.46973544973545
2022-08-16T10:00:01.420Z,69.81150264550264
2022-08-16T10:05:01.401Z,67.21043386243387
2022-08-16T10:10:01.221Z,72.11678306878308
2022-08-16T10:15:01.507Z,73.07626455026455
2022-08-16T10:20:10.837Z,74.80128042328043
2022-08-16T10:25:01.230Z,68.96960846560847
2022-08-16T10:30:06.655Z,46.14593650793651
2022-08-16T10:35:02.078Z,62.75712169312169
2022-08-16T10:40:01.325Z,78.60561904761904
2022-08-16T10:45:01.337Z,73.92874074074075
2022-08-16T10:50:01.497Z,67.71930158730159
2022-08-16T11:00:01.461Z,65.23786243386243
2022-08-16T11:05:05.818Z,73.26062433862434
2022-08-16T11:10:20.359Z,72.33284656084655
2022-08-16T11:15:17.035Z,73.60767195767195
2022-08-16T11:25:59.565Z,65.8242433862434
2022-08-16T11:30:01.316Z,58.17166137566138
2022-08-16T11:35:11.321Z,68.25251851851853
2022-08-16T11:40:01.353Z,69.06332275132276
2022-08-16T11:45:01.331Z,54.95701587301587
2022-08-16T11:50:11.654Z,73.12247619047619
2022-08-16T11:55:01.331Z,73.3683597883598
2022-08-16T12:00:01.293Z,61.278899470899475
2022-08-16T12:05:01.481Z,76.77982010582011
2022-08-16T12:25:01.396Z,36.92774603174603
2022-08-16T12:30:01.374Z,71.96038095238096
2022-08-16T12:35:01.498Z,75.53855026455027
2022-08-16T12:40:01.562Z,66.67886772486773
2022-08-16T12:45:01.339Z,61.85775661375661
2022-08-16T12:50:10.430Z,65.35096296296297
2022-08-16T12:55:01.374Z,65.82692063492064
2022-08-16T13:00:01.415Z,72.68907936507937
2022-08-16T13:05:01.515Z,72.39271957671957
2022-08-16T13:10:04.599Z,72.20133333333332
2022-08-16T13:15:01.381Z,70.93871957671958
2022-08-16T13:20:12.183Z,70.51293121693122
2022-08-16T13:25:01.407Z,70.35924867724869
2022-08-16T13:30:01.446Z,70.03328042328043
2022-08-16T13:35:01.423Z,69.03421164021164
2022-08-16T13:40:01.454Z,62.91868783068782
2022-08-16T13:45:01.574Z,55.996846560846556
2022-08-16T13:50:01.855Z,36.115809523809524
2022-08-16T13:55:01.419Z,22.863640211640213
2022-08-16T14:00:01.583Z,64.86455026455026
2022-08-16T14:05:01.932Z,66.97067724867725
2022-08-16T14:10:01.426Z,62.562296296296296
2022-08-16T14:15:01.529Z,58.934539682539686
2022-08-16T14:20:07.756Z,59.08245502645503
2022-08-16T14:25:01.439Z,53.01260317460317
2022-08-16T14:30:01.930Z,59.62057142857143
2022-08-16T14:35:01.436Z,53.66002116402117
2022-08-16T14:40:01.530Z,52.84684656084656
2022-08-16T14:45:01.590Z,52.12966137566137
2022-08-16T14:50:12.781Z,51.606931216931216
2022-08-16T14:55:01.472Z,50.21071957671958
2022-08-16T15:00:05.854Z,48.56265608465608
2022-08-16T15:05:01.557Z,47.010444444444445
2022-08-16T15:10:02.257Z,46.25227513227513
2022-08-16T15:15:01.653Z,45.058328042328036
2022-08-16T15:20:01.880Z,43.96210582010582
2022-08-16T15:25:01.506Z,42.378402116402114
2022-08-16T15:30:01.770Z,41.400126984126985
2022-08-16T15:35:03.285Z,39.25114285714286
2022-08-16T15:40:01.650Z,38.470063492063495
2022-08-16T15:45:01.670Z,36.81308994708995
2022-08-16T15:50:08.088Z,35.39540740740741
2022-08-16T15:55:07.352Z,33.73959788359789
2022-08-16T16:00:05.056Z,32.27631746031746
2022-08-16T16:05:02.092Z,30.685851851851854
2022-08-16T16:10:01.698Z,29.05153439153439
2022-08-16T16:15:01.694Z,27.74832804232804
2022-08-16T16:20:03.780Z,25.315439153439158
2022-08-16T16:25:01.496Z,23.593227513227514
2022-08-16T16:30:02.223Z,21.58283597883598
2022-08-16T16:35:01.590Z,20.36307936507937
2022-08-16T16:40:01.840Z,19.502550264550266
2022-08-16T16:45:02.151Z,18.25525925925926
2022-08-16T16:50:01.912Z,14.726666666666668
2022-08-16T16:55:01.578Z,5.607164021164022
2022-08-16T17:00:04.625Z,4.767195767195767
2022-08-16T17:05:01.564Z,4.392846560846561
2022-08-16T17:10:01.884Z,4.884243386243386
2022-08-16T17:15:01.704Z,5.701693121693122
2022-08-16T17:20:01.644Z,6.015756613756614
2022-08-16T17:25:01.671Z,5.349883597883598
2022-08-16T17:30:01.743Z,5.506
2022-08-16T17:35:03.942Z,4.360063492063492
2022-08-16T17:40:06.078Z,3.3561375661375665
2022-08-16T17:45:01.818Z,2.923925925925926
2022-08-16T17:50:08.130Z,2.287206349206349
2022-08-16T17:55:01.621Z,1.7272592592592593
2022-08-16T18:00:01.657Z,1.4775238095238097
2022-08-16T18:05:01.775Z,1.1526772486772485
2022-08-16T18:10:01.607Z,0.7578518518518519
2022-08-16T18:15:01.652Z,0.4702751322751323
2022-08-16T18:20:01.840Z,0.29913227513227514
2022-08-16T18:25:01.639Z,0.3474074074074074
2022-08-16T18:30:01.894Z,0.1240952380952381
2022-08-16T18:35:01.791Z,0
2022-08-16T18:40:01.691Z,0
2022-08-16T18:45:01.677Z,0
2022-08-16T18:50:07.326Z,0
2022-08-16T18:55:03.216Z,0
2022-08-16T19:00:01.741Z,0
2022-08-16T19:05:01.858Z,0
2022-08-16T19:10:01.692Z,0
2022-08-16T19:15:01.703Z,0
2022-08-16T19:20:10.682Z,0
2022-08-16T19:25:01.698Z,0
2022-08-16T19:30:01.766Z,0
2022-08-16T19:35:01.785Z,0
2022-08-16T19:40:01.740Z,0
2022-08-16T19:45:01.815Z,0
2022-08-16T19:50:01.891Z,0
2022-08-16T19:55:01.875Z,0
2022-08-16T20:00:01.860Z,0
2022-08-16T20:05:01.812Z,0
2022-08-16T20:10:01.934Z,0
2022-08-16T20:15:01.789Z,0
2022-08-16T20:20:08.119Z,0
2022-08-16T20:25:01.948Z,0
2022-08-16T20:30:04.744Z,0
2022-08-16T20:35:01.772Z,0
2022-08-16T20:40:05.768Z,0
2022-08-16T20:45:01.822Z,0
2022-08-16T20:50:03.694Z,0
2022-08-16T20:55:01.932Z,0
2022-08-16T21:00:02.021Z,0
2022-08-16T21:05:01.807Z,0
2022-08-16T21:10:02.060Z,0
2022-08-16T21:15:01.945Z,0
2022-08-16T21:20:02.123Z,0
2022-08-16T21:25:01.828Z,0
2022-08-16T21:30:02.054Z,0
2022-08-16T21:35:01.860Z,0
2022-08-16T21:40:01.974Z,0
2022-08-16T21:45:01.990Z,0
2022-08-16T21:50:01.811Z,0
2022-08-16T21:55:01.813Z,0
2022-08-16T22:00:02.032Z,0
2022-08-16T22:05:01.854Z,0
2022-08-16T22:10:05.988Z,0
2022-08-16T22:15:02.315Z,0
2022-08-16T22:20:07.822Z,0
2022-08-16T22:25:01.866Z,0
2022-08-16T22:30:02.972Z,0
2022-08-16T22:35:10.911Z,0
2022-08-16T22:40:01.969Z,0
2022-08-16T22:45:01.893Z,0
2022-08-16T22:50:02.055Z,0
2022-08-16T22:55:01.962Z,0
2022-08-16T23:00:02.296Z,0
2022-08-16T23:05:02.345Z,0
2022-08-16T23:10:01.866Z,0
2022-08-16T23:15:02.012Z,0
2022-08-16T23:20:08.084Z,0
2022-08-16T23:25:06.851Z,0
2022-08-16T23:30:01.945Z,0
2022-08-16T23:35:01.995Z,0
2022-08-16T23:40:02.092Z,0
2022-08-16T23:45:01.946Z,0
2022-08-16T23:50:07.782Z,0
2022-08-16T23:55:02.090Z,0
